Terminal Aerodrome Forecast
Issued by NWS

Home | Current Version | Previous Version | Text Only | Print | Product List | Glossary On
Versions: 1 2 3 4 5 6 7 8 9 10 11 12 13 14 15 16 17 18 19 20
405
FTUS44 KTSA 181720
TAFBVO
TAF
KBVO 181720Z 1818/1918 20007KT P6SM FEW025 BKN250
     FM190300 18004KT P6SM SCT050 BKN250 PROB30 1903/1909 3SM -TSRA
      BKN025CB
     FM191500 19006KT P6SM FEW030 BKN250=

USA.gov is the U.S. government's official web portal to all federal, state and local government web resources and services.